Time;durP1;ratioP1;P1;durP2;ratioP2;P2;SDS_P1;SDS_P2;PMS_P1;PMS_P2;Temp;Humidity;BMP_temperature;BMP_pressure;BME280_temperature;BME280_humidity;BME280_pressure;Samples;Min_cycle;Max_cycle;Signal;HPM_P1;HPM_P2
2023/08/04 00:00:55;;;;;;;2.03;1.73;;;14.10;99.90;;;;;;5034903;28;20241;-73
2023/08/04 00:03:22;;;;;;;3.13;1.90;;;14.10;99.90;;;;;;5035950;28;20202;-72
2023/08/04 00:05:50;;;;;;;3.23;1.80;;;14.00;99.90;;;;;;5035681;28;20198;-73
2023/08/04 00:08:17;;;;;;;2.10;1.53;;;14.00;99.90;;;;;;5035451;28;20598;-73
2023/08/04 00:10:43;;;;;;;3.00;1.80;;;14.00;99.90;;;;;;5035405;28;20202;-73
2023/08/04 00:13:10;;;;;;;2.77;1.60;;;14.00;99.90;;;;;;5035375;28;20345;-73
2023/08/04 00:15:37;;;;;;;1.73;1.60;;;13.90;99.90;;;;;;5035438;28;20198;-72
2023/08/04 00:18:04;;;;;;;3.47;2.00;;;13.90;99.90;;;;;;5035490;28;20249;-73
2023/08/04 00:20:31;;;;;;;2.93;1.80;;;13.90;99.90;;;;;;5035301;28;20268;-73
2023/08/04 00:22:59;;;;;;;3.13;1.60;;;13.80;99.90;;;;;;5035157;28;20198;-73
2023/08/04 00:25:25;;;;;;;4.73;1.97;;;13.70;99.90;;;;;;5034957;28;20294;-73
2023/08/04 00:27:52;;;;;;;5.07;1.73;;;13.70;99.90;;;;;;5034922;28;20198;-73
2023/08/04 00:30:19;;;;;;;3.33;2.13;;;13.70;99.90;;;;;;5035058;28;20272;-73
2023/08/04 00:32:47;;;;;;;3.67;1.90;;;13.60;99.90;;;;;;5035012;28;20195;-73
2023/08/04 00:35:14;;;;;;;3.83;2.00;;;13.60;99.90;;;;;;5034981;28;20209;-73
2023/08/04 00:37:41;;;;;;;2.90;1.90;;;13.50;99.90;;;;;;5034512;28;20198;-72
2023/08/04 00:40:10;;;;;;;5.30;2.00;;;13.40;99.90;;;;;;5034774;28;20633;-73
2023/08/04 00:42:36;;;;;;;3.10;2.00;;;13.40;99.90;;;;;;5035077;28;20237;-73
2023/08/04 00:45:03;;;;;;;4.60;2.10;;;13.30;99.90;;;;;;5034850;28;20202;-73
2023/08/04 00:47:35;;;;;;;3.47;1.83;;;13.30;99.90;;;;;;5034968;28;20289;-73
2023/08/04 00:50:02;;;;;;;5.80;2.20;;;13.50;99.90;;;;;;5034730;28;20237;-73
2023/08/04 00:52:29;;;;;;;4.23;2.00;;;13.40;99.90;;;;;;5034522;28;20198;-73
2023/08/04 00:54:56;;;;;;;2.97;2.20;;;13.50;99.90;;;;;;5034539;28;20659;-73
2023/08/04 00:57:24;;;;;;;3.20;2.10;;;13.50;99.90;;;;;;5034740;28;20202;-73
2023/08/04 00:59:55;;;;;;;3.90;2.10;;;13.50;99.90;;;;;;5034702;28;20214;-73
2023/08/04 01:02:21;;;;;;;3.67;2.03;;;13.50;99.90;;;;;;5034396;28;20202;-73
2023/08/04 01:04:48;;;;;;;3.33;2.07;;;13.50;99.90;;;;;;5034207;28;20198;-73
2023/08/04 01:07:20;;;;;;;3.30;2.00;;;13.50;99.90;;;;;;5034114;28;20194;-72
2023/08/04 01:09:54;;;;;;;3.90;1.70;;;13.50;99.90;;;;;;5034339;28;20226;-72
2023/08/04 01:12:31;;;;;;;5.00;2.60;;;13.40;99.90;;;;;;5033256;28;20202;-72
2023/08/04 01:14:59;;;;;;;4.10;1.93;;;13.40;99.90;;;;;;5034143;28;20202;-72
2023/08/04 01:17:26;;;;;;;4.40;2.10;;;13.40;99.90;;;;;;5034001;28;20721;-72
2023/08/04 01:19:52;;;;;;;2.37;1.90;;;13.40;99.90;;;;;;5034194;28;20213;-72
2023/08/04 01:22:21;;;;;;;3.30;2.10;;;13.50;99.90;;;;;;5034093;28;20198;-72
2023/08/04 01:24:48;;;;;;;5.10;2.17;;;13.50;99.90;;;;;;5033999;28;20202;-73
2023/08/04 01:27:18;;;;;;;4.13;1.80;;;13.60;99.90;;;;;;5033934;28;20253;-72
2023/08/04 01:29:46;;;;;;;3.20;2.33;;;13.60;99.90;;;;;;5033834;28;20226;-72
2023/08/04 01:32:13;;;;;;;3.37;2.07;;;13.60;99.90;;;;;;5033622;28;20673;-72
2023/08/04 01:34:41;;;;;;;3.87;2.10;;;13.50;99.90;;;;;;5033845;28;20260;-72
2023/08/04 01:37:08;;;;;;;4.10;2.23;;;13.40;99.90;;;;;;5033941;28;20213;-72
2023/08/04 01:39:37;;;;;;;3.33;2.07;;;13.20;99.90;;;;;;5033564;28;20230;-72
2023/08/04 01:42:04;;;;;;;4.40;1.93;;;13.20;99.90;;;;;;5033527;28;20202;-72
2023/08/04 01:44:31;;;;;;;5.20;2.30;;;13.20;99.90;;;;;;5033497;28;20202;-72
2023/08/04 01:46:57;;;;;;;3.90;2.20;;;13.20;99.90;;;;;;5033393;28;20609;-72
2023/08/04 01:49:24;;;;;;;2.03;1.77;;;13.30;99.90;;;;;;5033553;28;20226;-72
2023/08/04 01:51:51;;;;;;;3.00;2.47;;;13.50;99.90;;;;;;5033623;28;20228;-72
2023/08/04 01:54:17;;;;;;;3.10;1.93;;;13.60;99.90;;;;;;5033422;28;20544;-72
2023/08/04 01:56:45;;;;;;;2.50;2.10;;;13.60;99.90;;;;;;5033292;28;20202;-72
2023/08/04 01:59:12;;;;;;;2.30;1.70;;;13.60;99.90;;;;;;5033256;28;20202;-74
2023/08/04 02:01:38;;;;;;;3.17;2.10;;;13.60;99.90;;;;;;5033546;28;20198;-73
2023/08/04 02:04:05;;;;;;;3.17;2.13;;;13.50;99.90;;;;;;5033355;28;20260;-73
2023/08/04 02:06:32;;;;;;;3.37;2.10;;;13.50;99.90;;;;;;5033359;28;20294;-73
2023/08/04 02:08:59;;;;;;;3.90;2.20;;;13.40;99.90;;;;;;5033100;28;20222;-73
2023/08/04 02:11:25;;;;;;;4.23;2.30;;;13.30;99.90;;;;;;5033126;28;20234;-73
2023/08/04 02:13:53;;;;;;;2.80;1.93;;;13.20;99.90;;;;;;5033093;28;20206;-73
2023/08/04 02:16:20;;;;;;;3.23;2.33;;;13.10;99.90;;;;;;5033017;28;20609;-73
2023/08/04 02:18:46;;;;;;;4.50;2.30;;;13.00;99.90;;;;;;5033169;28;20206;-73
2023/08/04 02:21:13;;;;;;;5.23;3.13;;;13.10;99.90;;;;;;5032902;28;20673;-73
2023/08/04 02:23:40;;;;;;;4.60;2.50;;;13.10;99.90;;;;;;5032876;28;20260;-73
2023/08/04 02:26:06;;;;;;;4.20;2.80;;;13.10;99.90;;;;;;5032898;28;20752;-73
2023/08/04 02:28:33;;;;;;;4.33;2.30;;;13.00;99.90;;;;;;5032767;28;20205;-73
2023/08/04 02:31:01;;;;;;;5.37;2.97;;;13.00;99.90;;;;;;5032908;28;20264;-73
2023/08/04 02:33:27;;;;;;;3.97;2.83;;;12.90;99.90;;;;;;5032742;28;20650;-73
2023/08/04 02:36:00;;;;;;;5.23;2.90;;;12.90;99.90;;;;;;5032918;28;20195;-73
2023/08/04 02:38:26;;;;;;;3.87;2.80;;;13.00;99.90;;;;;;5032662;28;20202;-73
2023/08/04 02:40:53;;;;;;;6.93;2.70;;;13.00;99.90;;;;;;5032698;28;20206;-73
2023/08/04 02:43:20;;;;;;;6.77;3.00;;;13.10;99.90;;;;;;5032658;28;20194;-73
2023/08/04 02:45:51;;;;;;;3.93;2.60;;;13.20;99.90;;;;;;5032868;28;20202;-73
2023/08/04 02:48:19;;;;;;;8.47;4.63;;;13.30;99.90;;;;;;5032775;28;20260;-73
2023/08/04 02:50:46;;;;;;;5.60;3.20;;;13.40;99.90;;;;;;5032425;28;20701;-73
2023/08/04 02:53:13;;;;;;;7.47;2.80;;;13.40;99.90;;;;;;5032596;28;20562;-73
2023/08/04 02:55:39;;;;;;;4.37;2.27;;;13.50;99.90;;;;;;5032525;28;20198;-72
2023/08/04 02:58:07;;;;;;;3.27;2.40;;;13.60;99.90;;;;;;5032717;28;20332;-73
2023/08/04 03:00:33;;;;;;;5.37;2.63;;;13.60;99.90;;;;;;5032625;28;20205;-73
2023/08/04 03:03:00;;;;;;;3.53;2.53;;;13.60;99.90;;;;;;5032609;28;20199;-73
2023/08/04 03:05:28;;;;;;;4.10;2.00;;;13.70;99.90;;;;;;5032667;28;20649;-73
2023/08/04 03:07:54;;;;;;;5.43;2.53;;;13.70;99.90;;;;;;5032428;28;20260;-73
2023/08/04 03:10:21;;;;;;;5.37;2.40;;;13.70;99.90;;;;;;5032315;28;20690;-73
2023/08/04 03:12:48;;;;;;;3.00;2.10;;;13.80;99.90;;;;;;5032550;28;20257;-73
2023/08/04 03:15:14;;;;;;;3.63;2.50;;;13.80;99.90;;;;;;5032600;28;20202;-73
2023/08/04 03:17:41;;;;;;;4.33;2.10;;;13.80;99.90;;;;;;5032445;28;20198;-73
2023/08/04 03:20:09;;;;;;;5.90;2.30;;;13.60;99.90;;;;;;5032378;28;20598;-72
2023/08/04 03:22:37;;;;;;;3.90;1.90;;;13.70;99.90;;;;;;5032240;28;20198;-73
2023/08/04 03:25:04;;;;;;;4.37;2.13;;;13.70;99.90;;;;;;5032521;28;20229;-73
2023/08/04 03:27:30;;;;;;;3.53;2.43;;;13.80;99.90;;;;;;5032362;28;20256;-73
2023/08/04 03:29:57;;;;;;;2.97;2.00;;;13.80;99.90;;;;;;5032225;28;20215;-72
2023/08/04 03:32:23;;;;;;;2.13;1.77;;;13.70;99.90;;;;;;5032188;28;20203;-72
2023/08/04 03:34:50;;;;;;;5.60;2.40;;;13.60;99.90;;;;;;5033470;28;20256;-73
2023/08/04 03:37:17;;;;;;;4.50;2.37;;;13.70;99.90;;;;;;5036083;28;20307;-72
2023/08/04 03:39:45;;;;;;;2.47;1.80;;;13.70;99.90;;;;;;5036034;28;20234;-73
2023/08/04 03:42:11;;;;;;;4.47;2.30;;;13.80;99.90;;;;;;5036025;28;20202;-73
2023/08/04 03:44:38;;;;;;;4.07;2.07;;;13.70;99.90;;;;;;5035953;28;20201;-73
2023/08/04 03:47:05;;;;;;;3.50;2.20;;;13.80;99.90;;;;;;5035966;28;20539;-73
2023/08/04 03:49:32;;;;;;;5.13;2.20;;;13.80;99.90;;;;;;5035726;28;20272;-73
2023/08/04 03:51:59;;;;;;;2.73;2.00;;;13.70;99.90;;;;;;5035663;28;20210;-73
2023/08/04 03:54:25;;;;;;;4.93;2.30;;;13.80;99.90;;;;;;5035944;28;20202;-73
2023/08/04 03:56:53;;;;;;;2.80;2.10;;;13.70;99.90;;;;;;5035675;28;20593;-73
2023/08/04 03:59:20;;;;;;;3.60;2.03;;;13.70;99.90;;;;;;5035670;28;20202;-73
2023/08/04 04:01:47;;;;;;;4.63;2.23;;;13.80;99.90;;;;;;5035458;28;20582;-73
2023/08/04 04:04:14;;;;;;;5.47;2.27;;;13.80;99.90;;;;;;5035447;28;20206;-73
2023/08/04 04:06:40;;;;;;;2.97;2.10;;;13.80;99.90;;;;;;5035620;28;20231;-73
2023/08/04 04:09:07;;;;;;;2.63;2.10;;;13.80;99.90;;;;;;5035690;28;20195;-73
2023/08/04 04:11:34;;;;;;;4.10;1.93;;;13.90;99.90;;;;;;5035235;28;20728;-73
2023/08/04 04:14:02;;;;;;;5.47;2.30;;;13.90;99.90;;;;;;5035239;28;20198;-73
2023/08/04 04:16:30;;;;;;;2.63;1.97;;;13.90;99.90;;;;;;5035370;28;20226;-73
2023/08/04 04:18:56;;;;;;;3.83;2.10;;;13.90;99.90;;;;;;5035255;28;20245;-73
2023/08/04 04:21:23;;;;;;;2.83;2.00;;;13.90;99.90;;;;;;5035374;28;20210;-73
2023/08/04 04:23:50;;;;;;;3.17;2.20;;;13.90;99.90;;;;;;5035366;28;20195;-73
2023/08/04 04:26:16;;;;;;;4.80;2.30;;;13.90;99.90;;;;;;5035202;28;20230;-73
2023/08/04 04:28:43;;;;;;;4.60;2.20;;;13.80;99.90;;;;;;5035123;28;20198;-73
2023/08/04 04:31:11;;;;;;;3.80;2.17;;;13.80;99.90;;;;;;5035060;28;20226;-73
2023/08/04 04:33:37;;;;;;;2.40;1.83;;;13.70;99.90;;;;;;5034859;28;20194;-73
2023/08/04 04:36:04;;;;;;;3.60;2.00;;;13.70;99.90;;;;;;5035106;28;20206;-74
2023/08/04 04:38:31;;;;;;;2.50;1.90;;;13.70;99.90;;;;;;5034821;28;20622;-73
2023/08/04 04:40:58;;;;;;;3.63;2.33;;;13.60;99.90;;;;;;5034889;28;20272;-73
2023/08/04 04:43:25;;;;;;;2.73;1.93;;;13.60;99.90;;;;;;5034994;28;20252;-73
2023/08/04 04:45:52;;;;;;;6.00;2.33;;;13.60;99.90;;;;;;5034635;28;20199;-73
2023/08/04 04:48:21;;;;;;;4.50;2.30;;;13.60;99.90;;;;;;5034846;28;20527;-73
2023/08/04 04:50:48;;;;;;;2.73;1.90;;;13.70;99.90;;;;;;5034831;28;20229;-73
2023/08/04 04:53:14;;;;;;;3.10;2.30;;;13.80;99.90;;;;;;5034630;28;20210;-73
2023/08/04 04:55:41;;;;;;;3.97;2.33;;;13.90;99.90;;;;;;5034722;28;20605;-73
2023/08/04 04:58:07;;;;;;;3.17;1.97;;;14.00;99.90;;;;;;5034489;28;20211;-73
2023/08/04 05:00:35;;;;;;;6.00;2.10;;;14.10;99.90;;;;;;5034537;28;20203;-73
2023/08/04 05:03:04;;;;;;;6.40;2.17;;;14.20;99.90;;;;;;5034629;28;20206;-73
2023/08/04 05:05:32;;;;;;;4.83;2.40;;;14.30;99.90;;;;;;5034218;28;20202;-73
2023/08/04 05:07:58;;;;;;;5.37;2.17;;;14.40;99.90;;;;;;5034263;28;20601;-73
2023/08/04 05:10:25;;;;;;;3.77;2.20;;;14.50;99.90;;;;;;5034156;28;20223;-73
2023/08/04 05:12:52;;;;;;;3.27;2.20;;;14.60;99.90;;;;;;5034012;28;20198;-73
2023/08/04 05:15:19;;;;;;;3.27;2.07;;;14.70;99.90;;;;;;5034251;28;20206;-73
2023/08/04 05:17:45;;;;;;;4.07;2.00;;;14.80;99.90;;;;;;5034265;28;20236;-73
2023/08/04 05:20:13;;;;;;;2.63;2.20;;;14.90;99.90;;;;;;5034024;28;20263;-73
2023/08/04 05:22:43;;;;;;;3.40;1.93;;;15.00;99.90;;;;;;5033903;28;20256;-73
2023/08/04 05:25:10;;;;;;;5.57;2.40;;;15.00;99.90;;;;;;5033983;28;20206;-73
2023/08/04 05:27:36;;;;;;;4.03;2.20;;;15.00;99.90;;;;;;5033711;28;20630;-73
2023/08/04 05:30:03;;;;;;;3.60;1.90;;;15.10;99.90;;;;;;5033931;28;20253;-73
2023/08/04 05:32:30;;;;;;;4.40;1.60;;;15.20;99.90;;;;;;5033857;28;20202;-73
2023/08/04 05:34:56;;;;;;;2.90;1.60;;;15.30;99.90;;;;;;5033912;28;20198;-73
2023/08/04 05:37:23;;;;;;;2.87;1.70;;;15.40;99.90;;;;;;5033714;28;20606;-73
2023/08/04 05:39:51;;;;;;;2.00;1.57;;;15.50;99.90;;;;;;5033590;28;20230;-73
2023/08/04 05:42:18;;;;;;;3.70;1.50;;;15.50;99.90;;;;;;5033512;28;20198;-73
2023/08/04 05:44:45;;;;;;;2.63;1.60;;;15.40;99.90;;;;;;5033859;28;20198;-73
2023/08/04 05:47:12;;;;;;;3.20;1.90;;;15.50;99.90;;;;;;5033533;28;20206;-73
2023/08/04 05:49:39;;;;;;;5.50;2.00;;;15.80;99.90;;;;;;5033553;28;20252;-73
2023/08/04 05:52:06;;;;;;;3.05;1.55;;;15.80;99.90;;;;;;5033269;28;20310;-73
2023/08/04 05:54:32;;;;;;;6.57;2.00;;;15.90;99.90;;;;;;5033381;28;20202;-73
2023/08/04 05:57:00;;;;;;;3.97;1.70;;;15.90;99.90;;;;;;5032750;28;20594;-73
2023/08/04 05:59:27;;;;;;;2.60;1.70;;;15.90;99.90;;;;;;5033379;28;20254;-73
2023/08/04 06:01:54;;;;;;;4.57;1.90;;;15.90;99.90;;;;;;5033134;28;20202;-74
2023/08/04 06:04:20;;;;;;;2.57;1.50;;;16.00;99.90;;;;;;5033280;28;20256;-73
2023/08/04 06:06:47;;;;;;;2.33;1.40;;;16.00;99.90;;;;;;5033243;28;20217;-73
2023/08/04 06:09:14;;;;;;;2.10;1.60;;;16.10;99.90;;;;;;5033059;28;20206;-73
2023/08/04 06:11:40;;;;;;;3.70;1.70;;;16.10;99.90;;;;;;5032960;28;20292;-73
2023/08/04 06:14:08;;;;;;;1.70;1.60;;;16.10;99.90;;;;;;5033346;28;20653;-73
2023/08/04 06:16:35;;;;;;;2.23;1.70;;;16.10;99.90;;;;;;5033067;28;20201;-73
2023/08/04 06:19:01;;;;;;;2.87;1.50;;;16.10;99.90;;;;;;5033284;28;20256;-73
2023/08/04 06:21:29;;;;;;;3.17;1.80;;;16.10;99.90;;;;;;5033099;28;20248;-74
2023/08/04 06:23:57;;;;;;;4.40;1.80;;;16.10;99.90;;;;;;5033182;28;20250;-73
2023/08/04 06:26:23;;;;;;;4.47;1.60;;;16.10;99.90;;;;;;5033164;28;20256;-73
2023/08/04 06:28:50;;;;;;;2.42;1.58;;;16.10;99.90;;;;;;5033003;28;20202;-73
2023/08/04 06:31:18;;;;;;;3.90;1.70;;;16.20;99.90;;;;;;5032568;28;20677;-73
2023/08/04 06:33:44;;;;;;;2.33;1.70;;;16.30;99.90;;;;;;5033588;28;20211;-73
2023/08/04 06:36:11;;;;;;;3.70;1.95;;;16.50;99.90;;;;;;5052749;28;20198;-73
2023/08/04 06:38:38;;;;;;;2.78;1.52;;;16.70;99.90;;;;;;5052431;28;20293;-73
2023/08/04 06:41:04;;;;;;;2.60;1.45;;;16.80;99.90;;;;;;5052819;28;20205;-73
2023/08/04 06:43:31;;;;;;;1.88;1.38;;;16.90;99.90;;;;;;5052878;28;20194;-73
2023/08/04 06:45:58;;;;;;;3.75;1.60;;;17.00;99.90;;;;;;5052674;28;20722;-73
2023/08/04 06:48:26;;;;;;;4.35;1.92;;;17.00;99.90;;;;;;5052513;28;20206;-73
2023/08/04 06:50:53;;;;;;;3.47;1.70;;;17.10;99.90;;;;;;5052236;28;20257;-77
2023/08/04 06:53:20;;;;;;;4.95;1.80;;;17.10;99.90;;;;;;5052091;28;20197;-73
2023/08/04 06:55:46;;;;;;;4.80;1.60;;;17.30;99.90;;;;;;5052656;28;20193;-73
2023/08/04 06:58:13;;;;;;;3.17;1.60;;;17.40;99.90;;;;;;5052357;28;20193;-73
2023/08/04 07:00:40;;;;;;;2.85;1.50;;;17.40;99.90;;;;;;5052542;28;20202;-73
2023/08/04 07:03:08;;;;;;;4.35;1.70;;;17.80;99.90;;;;;;5052392;28;20653;-73
2023/08/04 07:05:36;;;;;;;3.03;1.50;;;17.60;99.90;;;;;;5052430;28;20698;-73
2023/08/04 07:08:02;;;;;;;5.38;1.70;;;17.70;99.90;;;;;;5052655;28;20259;-73
2023/08/04 07:10:29;;;;;;;3.08;1.90;;;17.80;99.90;;;;;;5054475;28;20201;-73
2023/08/04 07:12:56;;;;;;;6.43;2.03;;;17.80;99.90;;;;;;5056509;28;20197;-73
2023/08/04 07:15:22;;;;;;;4.05;1.98;;;18.10;99.90;;;;;;5056372;28;20252;-73
2023/08/04 07:17:49;;;;;;;3.75;1.45;;;18.40;99.90;;;;;;5056488;28;20201;-73
2023/08/04 07:20:16;;;;;;;3.88;1.70;;;18.30;99.90;;;;;;5056220;28;20197;-73
2023/08/04 07:22:43;;;;;;;4.20;1.75;;;18.50;99.90;;;;;;5056209;28;20703;-74
2023/08/04 07:25:10;;;;;;;1.75;1.25;;;18.80;99.90;;;;;;5056379;28;20194;-73
2023/08/04 07:27:37;;;;;;;4.30;1.50;;;18.80;99.90;;;;;;5055840;28;20255;-73
2023/08/04 07:30:04;;;;;;;2.03;1.30;;;18.90;99.90;;;;;;5056193;28;20201;-73
2023/08/04 07:32:31;;;;;;;3.50;1.45;;;19.00;99.90;;;;;;5055979;28;20229;-73
2023/08/04 07:34:58;;;;;;;2.22;1.33;;;18.70;99.90;;;;;;5055923;28;20202;-73
2023/08/04 07:37:24;;;;;;;3.15;1.30;;;18.80;99.90;;;;;;5055848;28;20542;-73
2023/08/04 07:39:52;;;;;;;1.35;1.13;;;18.70;99.90;;;;;;5055681;28;20621;-73
2023/08/04 07:42:19;;;;;;;2.03;1.30;;;18.40;99.90;;;;;;5055875;28;20201;-73
2023/08/04 07:44:45;;;;;;;4.07;1.70;;;18.20;99.90;;;;;;5055873;28;20206;-73
2023/08/04 07:47:12;;;;;;;2.55;1.48;;;18.30;99.90;;;;;;5055691;28;20197;-74
2023/08/04 07:49:39;;;;;;;2.78;1.40;;;18.40;99.90;;;;;;5056029;28;20201;-74
2023/08/04 07:52:06;;;;;;;3.72;1.95;;;19.00;99.90;;;;;;5055774;28;20708;-74
2023/08/04 07:54:33;;;;;;;2.90;1.67;;;19.40;99.90;;;;;;5055844;28;20198;-74
2023/08/04 07:57:03;;;;;;;2.38;1.40;;;19.80;99.90;;;;;;5055749;28;20198;-73
2023/08/04 07:59:29;;;;;;;1.48;1.30;;;20.10;99.90;;;;;;5055622;28;20760;-74
2023/08/04 08:01:56;;;;;;;2.47;1.45;;;20.60;99.90;;;;;;5055552;28;20740;-74
2023/08/04 08:04:22;;;;;;;2.50;1.50;;;19.70;99.90;;;;;;5055589;28;20197;-73
2023/08/04 08:06:49;;;;;;;3.70;1.67;;;19.60;99.90;;;;;;5055595;28;20606;-73
2023/08/04 08:09:16;;;;;;;2.78;1.50;;;19.90;99.90;;;;;;5055317;28;20702;-74
2023/08/04 08:11:42;;;;;;;2.67;1.52;;;19.80;99.90;;;;;;5055353;28;20287;-74
2023/08/04 08:14:11;;;;;;;2.33;1.48;;;19.90;99.90;;;;;;5055293;28;20202;-74
2023/08/04 08:16:37;;;;;;;2.45;1.30;;;19.70;99.90;;;;;;5055467;28;20229;-73
2023/08/04 08:19:04;;;;;;;2.20;1.40;;;19.90;99.90;;;;;;5055239;28;20263;-74
2023/08/04 08:21:32;;;;;;;3.45;1.50;;;19.90;99.90;;;;;;5054576;28;20197;-74
2023/08/04 08:23:58;;;;;;;1.80;1.27;;;20.30;99.90;;;;;;5055253;28;20229;-73
2023/08/04 08:26:25;;;;;;;3.90;1.48;;;20.30;99.90;;;;;;5055482;28;20214;-74
2023/08/04 08:28:52;;;;;;;2.95;1.40;;;20.20;99.90;;;;;;5055143;28;20578;-74
2023/08/04 08:31:20;;;;;;;3.15;1.65;;;20.30;99.90;;;;;;5055060;28;20225;-74
2023/08/04 08:33:46;;;;;;;1.83;1.23;;;20.30;99.90;;;;;;5055180;28;20232;-74
2023/08/04 08:36:13;;;;;;;2.35;1.30;;;20.00;99.90;;;;;;5055019;28;20194;-75
2023/08/04 08:38:40;;;;;;;2.95;1.50;;;19.80;99.90;;;;;;5054646;28;20773;-73
2023/08/04 08:41:07;;;;;;;3.22;1.38;;;20.30;99.90;;;;;;5054830;28;20263;-73
2023/08/04 08:43:34;;;;;;;2.22;1.38;;;21.10;99.90;;;;;;5054671;28;20193;-74
2023/08/04 08:46:02;;;;;;;2.05;1.40;;;21.30;99.90;;;;;;5054850;28;20205;-73
2023/08/04 08:48:31;;;;;;;1.98;1.23;;;21.40;99.90;;;;;;5054679;28;20198;-74
2023/08/04 08:51:03;;;;;;;1.83;1.30;;;21.70;99.90;;;;;;5054622;28;20259;-74
2023/08/04 08:53:31;;;;;;;4.47;1.80;;;21.50;99.90;;;;;;5054802;28;20194;-74
2023/08/04 08:56:00;;;;;;;3.45;1.50;;;22.20;99.90;;;;;;5054621;28;20267;-74
2023/08/04 08:58:28;;;;;;;3.97;1.40;;;22.00;99.90;;;;;;5054805;28;20288;-74
2023/08/04 09:00:55;;;;;;;2.38;1.38;;;21.50;99.90;;;;;;5054724;28;20220;-73
2023/08/04 09:03:22;;;;;;;1.60;1.13;;;21.50;99.90;;;;;;5054484;28;20197;-73
2023/08/04 09:05:50;;;;;;;2.47;1.27;;;21.40;99.90;;;;;;5054549;28;20202;-73
2023/08/04 09:08:17;;;;;;;3.85;1.52;;;21.30;99.90;;;;;;5054587;28;20255;-73
2023/08/04 09:10:44;;;;;;;1.67;1.15;;;21.90;99.90;;;;;;5054409;28;20259;-74
2023/08/04 09:13:12;;;;;;;1.95;1.10;;;21.90;99.90;;;;;;5054432;28;20275;-73
2023/08/04 09:15:48;;;;;;;1.33;1.00;;;22.10;99.90;;;;;;5054259;28;20209;-74
2023/08/04 09:18:24;;;;;;;1.20;1.00;;;22.20;99.90;;;;;;5054198;28;20736;-74
2023/08/04 09:20:58;;;;;;;2.05;1.10;;;21.90;99.90;;;;;;5052762;28;20697;-73
2023/08/04 09:23:25;;;;;;;2.42;1.20;;;22.20;99.90;;;;;;5054249;28;20200;-73
2023/08/04 09:25:52;;;;;;;1.38;1.13;;;22.80;99.90;;;;;;5053682;28;20715;-74
2023/08/04 09:28:19;;;;;;;1.75;1.17;;;22.90;99.90;;;;;;5053932;28;20208;-74
2023/08/04 09:31:04;;;;;;;2.08;1.00;;;22.60;99.90;;;;;;5053458;28;20657;-73
2023/08/04 09:33:31;;;;;;;1.33;1.15;;;23.50;99.90;;;;;;5052650;28;20293;-73
2023/08/04 09:36:07;;;;;;;1.55;1.10;;;22.80;99.90;;;;;;5053678;28;20198;-73
2023/08/04 09:38:34;;;;;;;2.45;1.00;;;22.60;99.90;;;;;;5043777;28;20202;-73
2023/08/04 09:41:02;;;;;;;1.92;1.08;;;22.50;99.90;;;;;;5033603;28;20771;-73
2023/08/04 09:43:29;;;;;;;1.73;1.13;;;21.60;99.90;;;;;;5033502;28;20791;-72
2023/08/04 09:45:58;;;;;;;1.65;1.20;;;21.30;99.90;;;;;;5033496;28;20598;-74
2023/08/04 09:48:26;;;;;;;2.17;1.25;;;21.50;99.90;;;;;;5033899;28;20201;-74
2023/08/04 09:51:07;;;;;;;1.83;1.20;;;21.40;99.90;;;;;;5033200;28;20531;-72
2023/08/04 09:53:36;;;;;;;5.03;1.48;;;21.60;99.90;;;;;;5033479;28;20316;-73
2023/08/04 09:56:03;;;;;;;1.63;1.17;;;21.80;99.90;;;;;;5033253;28;20195;-73
2023/08/04 09:58:30;;;;;;;1.75;1.20;;;21.90;99.90;;;;;;5033128;28;20195;-74
2023/08/04 10:00:58;;;;;;;2.63;1.13;;;21.90;99.90;;;;;;5033361;28;20203;-74
2023/08/04 10:03:25;;;;;;;1.45;1.30;;;21.50;99.90;;;;;;5033112;28;20198;-74
2023/08/04 10:05:55;;;;;;;2.15;1.30;;;21.50;99.90;;;;;;5033167;28;20256;-73
2023/08/04 10:08:23;;;;;;;2.72;1.23;;;21.20;99.90;;;;;;5031239;28;20194;-74
2023/08/04 10:10:52;;;;;;;2.70;1.10;;;21.40;99.90;;;;;;5035388;28;20194;-74
2023/08/04 10:13:20;;;;;;;2.25;1.30;;;21.50;99.90;;;;;;5040866;28;20268;-76
2023/08/04 10:15:48;;;;;;;3.08;1.33;;;21.80;99.90;;;;;;5053064;28;20209;-73
2023/08/04 10:18:14;;;;;;;1.85;1.20;;;21.90;99.90;;;;;;5052474;28;20752;-73
2023/08/04 10:20:41;;;;;;;2.22;1.23;;;22.10;99.90;;;;;;5052870;28;20198;-74
2023/08/04 10:23:08;;;;;;;2.25;1.17;;;22.30;99.90;;;;;;5052160;28;20251;-73
2023/08/04 10:25:36;;;;;;;2.22;1.05;;;23.00;99.90;;;;;;5052474;28;20232;-76
2023/08/04 10:28:03;;;;;;;2.80;1.20;;;23.30;99.90;;;;;;5052526;28;20707;-76
2023/08/04 10:30:30;;;;;;;2.47;1.02;;;23.40;99.90;;;;;;5053116;28;20227;-75
2023/08/04 10:33:09;;;;;;;1.88;1.00;;;23.00;99.90;;;;;;5052217;28;20259;-78
2023/08/04 10:36:07;;;;;;;1.55;1.05;;;23.60;99.90;;;;;;5052214;28;20657;-75
2023/08/04 10:38:45;;;;;;;2.15;1.33;;;24.00;99.90;;;;;;5052081;28;20221;-74
2023/08/04 10:41:13;;;;;;;2.85;1.10;;;23.10;99.90;;;;;;5052094;28;20186;-78
2023/08/04 10:43:40;;;;;;;2.22;1.20;;;22.50;99.90;;;;;;5052088;28;20231;-72
2023/08/04 10:46:11;;;;;;;3.20;1.20;;;22.80;99.90;;;;;;5052264;28;20201;-74
2023/08/04 10:48:40;;;;;;;1.38;1.00;;;23.00;99.90;;;;;;5052506;28;20633;-72
2023/08/04 10:51:08;;;;;;;2.22;1.20;;;23.40;99.90;;;;;;5048948;28;20300;-74
2023/08/04 10:53:36;;;;;;;1.35;1.13;;;22.80;99.90;;;;;;5032338;28;20268;-75
2023/08/04 10:56:06;;;;;;;3.35;1.27;;;23.20;99.90;;;;;;5032167;28;20433;-73
2023/08/04 10:58:35;;;;;;;1.10;1.00;;;23.60;99.90;;;;;;5032353;28;20244;-75
2023/08/04 11:01:02;;;;;;;1.80;1.10;;;23.70;99.90;;;;;;5032330;28;20256;-72
2023/08/04 11:03:33;;;;;;;3.28;1.20;;;23.50;99.90;;;;;;5032329;28;20217;-72
2023/08/04 11:05:59;;;;;;;2.10;1.15;;;23.30;99.90;;;;;;5032212;28;20658;-73
2023/08/04 11:08:26;;;;;;;2.00;1.10;;;24.10;99.90;;;;;;5032129;28;20202;-73
2023/08/04 11:10:54;;;;;;;1.00;0.90;;;24.30;99.90;;;;;;5032455;28;20202;-73
2023/08/04 11:13:22;;;;;;;1.65;1.10;;;24.00;99.90;;;;;;5031779;28;20226;-72
2023/08/04 11:15:53;;;;;;;2.85;1.20;;;23.50;99.90;;;;;;5032171;28;20199;-73
2023/08/04 11:18:22;;;;;;;2.03;1.17;;;23.40;99.90;;;;;;5032272;28;20289;-73
2023/08/04 11:20:49;;;;;;;1.30;1.05;;;23.10;99.90;;;;;;5032264;28;20202;-73
2023/08/04 11:23:23;;;;;;;1.20;1.02;;;23.10;99.90;;;;;;5032133;28;20332;-72
2023/08/04 11:25:49;;;;;;;3.60;1.20;;;22.90;99.90;;;;;;5032009;28;20198;-72
2023/08/04 11:28:16;;;;;;;3.67;1.20;;;22.50;99.90;;;;;;5032102;28;20198;-73
2023/08/04 11:30:43;;;;;;;5.55;2.38;;;22.40;99.90;;;;;;5032195;28;20240;-74
2023/08/04 11:33:11;;;;;;;2.72;1.70;;;22.50;99.90;;;;;;5031719;28;20222;-72
2023/08/04 11:35:37;;;;;;;2.28;1.98;;;22.90;99.90;;;;;;5031972;28;20353;-72
2023/08/04 11:38:04;;;;;;;1.42;1.05;;;22.90;99.90;;;;;;5031954;28;20194;-72
2023/08/04 11:40:31;;;;;;;3.38;1.13;;;22.70;99.90;;;;;;5043438;28;20225;-72
2023/08/04 11:42:59;;;;;;;1.42;1.13;;;23.40;99.90;;;;;;5051759;28;20210;-74
2023/08/04 11:45:26;;;;;;;1.73;1.13;;;24.00;99.90;;;;;;5051917;28;20209;-74
2023/08/04 11:47:55;;;;;;;1.38;1.10;;;23.80;99.90;;;;;;5052123;28;20244;-73
2023/08/04 11:50:24;;;;;;;1.23;0.90;;;23.90;99.90;;;;;;5051953;28;20197;-74
2023/08/04 11:52:51;;;;;;;1.02;0.73;;;23.90;99.90;;;;;;5051973;28;20225;-74
2023/08/04 11:55:18;;;;;;;1.00;0.90;;;23.40;99.90;;;;;;5052122;28;20662;-74
2023/08/04 11:57:49;;;;;;;2.97;1.38;;;23.50;99.90;;;;;;5055775;28;20197;-74
2023/08/04 12:00:16;;;;;;;2.50;1.20;;;23.80;99.90;;;;;;5055898;28;20216;-74
2023/08/04 12:02:57;;;;;;;2.65;1.10;;;23.40;99.90;;;;;;5055556;28;20198;-74
2023/08/04 12:05:30;;;;;;;2.22;1.10;;;23.40;99.90;;;;;;5055353;28;20251;-73
2023/08/04 12:07:58;;;;;;;4.13;1.27;;;23.10;99.90;;;;;;5047379;28;20685;-74
2023/08/04 12:10:25;;;;;;;1.85;1.00;;;23.30;99.90;;;;;;5034941;28;20198;-74
2023/08/04 12:12:52;;;;;;;4.57;1.20;;;23.40;99.90;;;;;;5035396;28;20221;-73
2023/08/04 12:15:19;;;;;;;2.72;1.10;;;23.60;99.90;;;;;;5035524;28;20202;-74
2023/08/04 12:17:45;;;;;;;1.33;1.10;;;23.30;99.90;;;;;;5034969;28;20708;-73
2023/08/04 12:20:13;;;;;;;1.67;1.17;;;23.50;99.90;;;;;;5034957;28;20199;-73
2023/08/04 12:22:43;;;;;;;1.25;0.95;;;23.10;99.90;;;;;;5035515;28;20202;-73
2023/08/04 12:25:11;;;;;;;1.92;1.10;;;23.00;99.90;;;;;;5043367;28;20538;-74
2023/08/04 12:27:38;;;;;;;1.65;1.00;;;22.90;99.90;;;;;;5055249;28;20194;-73
2023/08/04 12:30:05;;;;;;;2.25;1.10;;;23.20;99.90;;;;;;5055204;28;20596;-73
2023/08/04 12:32:32;;;;;;;2.38;1.10;;;22.80;99.90;;;;;;5061253;28;20213;-73
2023/08/04 12:34:59;;;;;;;3.05;1.30;;;22.90;99.90;;;;;;5054353;28;20197;-73
2023/08/04 12:37:26;;;;;;;1.52;1.13;;;23.60;99.90;;;;;;5055885;28;20201;-72
2023/08/04 12:39:53;;;;;;;1.30;0.93;;;24.00;99.90;;;;;;5054882;28;20507;-72
2023/08/04 12:42:20;;;;;;;1.48;1.10;;;24.10;99.90;;;;;;5053725;28;20201;-73
2023/08/04 12:44:47;;;;;;;2.85;1.13;;;24.40;99.90;;;;;;5054912;28;20711;-73
2023/08/04 12:47:13;;;;;;;2.20;1.20;;;25.30;99.90;;;;;;5054915;28;20201;-73
2023/08/04 12:49:40;;;;;;;1.67;1.20;;;27.40;99.90;;;;;;5054808;28;20197;-73